DLA8826 EDDF-LIPX
Flight info
| Callsign | DLA8826 |
|---|---|
| Flight time | N/A |
| Altitude | 37000 |
| Route | ANEKI2L ANEKI Y163 NATOR DCT TRA/N0411F310 DCT ARGAX DCT RESIA DCT ATPED DCT TAGIP/N0342F190 P131 MOVOR T897 IDREK/N0318F130 T897 ANJAT |
| Aircraft | E195/M-SDE3GILORVW/S |
Departure
| Time | N/A |
|---|---|
| Airport | Frankfurt Main Airport (EDDF) |
Arrival
| Time | 2026-04-20 13:35 |
|---|---|
| Airport | Verona Villafranca Valerio Catullo Airport (LIPX) |
| Time | Latitude | Longitude | Altitude | Speed | Heading |
|---|---|---|---|---|---|
| 2026-04-20 12:45 | 49.46888 | 8.50026 | 20358 ft | 366 kts | 189° |
| 2026-04-20 12:45 | 49.44336 | 8.49691 | 21005 ft | 370 kts | 189° |
| 2026-04-20 12:45 | 49.41763 | 8.49355 | 21635 ft | 373 kts | 190° |
| 2026-04-20 12:45 | 49.39161 | 8.49013 | 22282 ft | 377 kts | 191° |
| 2026-04-20 12:46 | 49.36535 | 8.48670 | 22948 ft | 380 kts | 191° |
| 2026-04-20 12:46 | 49.33887 | 8.48322 | 23614 ft | 384 kts | 192° |
| 2026-04-20 12:46 | 49.31210 | 8.47970 | 24179 ft | 388 kts | 192° |
| 2026-04-20 12:46 | 49.28505 | 8.47618 | 24738 ft | 392 kts | 193° |
| 2026-04-20 12:47 | 49.25807 | 8.47269 | 25300 ft | 396 kts | 193° |
| 2026-04-20 12:47 | 49.23013 | 8.46904 | 25862 ft | 400 kts | 193° |
| 2026-04-20 12:47 | 49.20261 | 8.46544 | 26396 ft | 404 kts | 194° |
| 2026-04-20 12:47 | 49.17451 | 8.46179 | 26913 ft | 408 kts | 194° |
| 2026-04-20 12:48 | 49.14602 | 8.45809 | 27414 ft | 412 kts | 194° |
| 2026-04-20 12:48 | 49.11733 | 8.45438 | 27899 ft | 415 kts | 194° |
| 2026-04-20 12:48 | 49.08842 | 8.45064 | 28380 ft | 419 kts | 194° |
| 2026-04-20 12:48 | 49.05947 | 8.44593 | 28845 ft | 416 kts | 200° |
| 2026-04-20 12:49 | 49.03115 | 8.43723 | 29328 ft | 415 kts | 203° |
| 2026-04-20 12:49 | 49.00294 | 8.42709 | 29800 ft | 417 kts | 204° |
| 2026-04-20 12:49 | 48.97456 | 8.41690 | 30248 ft | 421 kts | 203° |
| 2026-04-20 12:49 | 48.94590 | 8.40687 | 30611 ft | 424 kts | 202° |
| 2026-04-20 12:50 | 48.91702 | 8.39683 | 30978 ft | 428 kts | 202° |
| 2026-04-20 12:50 | 48.88788 | 8.38679 | 31316 ft | 431 kts | 202° |
| 2026-04-20 12:50 | 48.85851 | 8.37669 | 31664 ft | 434 kts | 202° |
| 2026-04-20 12:50 | 48.82898 | 8.36654 | 31989 ft | 436 kts | 202° |
| 2026-04-20 12:51 | 48.79926 | 8.35631 | 32296 ft | 439 kts | 202° |
| 2026-04-20 12:51 | 48.76943 | 8.34600 | 32673 ft | 439 kts | 202° |
| 2026-04-20 12:51 | 48.73978 | 8.33513 | 33129 ft | 437 kts | 202° |
| 2026-04-20 12:51 | 48.71028 | 8.32411 | 33540 ft | 436 kts | 202° |
| 2026-04-20 12:52 | 48.68085 | 8.31317 | 33905 ft | 436 kts | 202° |
| 2026-04-20 12:52 | 48.65135 | 8.30227 | 34242 ft | 437 kts | 202° |
| 2026-04-20 12:52 | 48.62177 | 8.29140 | 34468 ft | 438 kts | 202° |
| 2026-04-20 12:52 | 48.59217 | 8.28055 | 34766 ft | 438 kts | 201° |
| 2026-04-20 12:53 | 48.56250 | 8.26972 | 35057 ft | 438 kts | 201° |
| 2026-04-20 12:53 | 48.53276 | 8.25889 | 35305 ft | 439 kts | 201° |
| 2026-04-20 12:53 | 48.50293 | 8.24858 | 35564 ft | 444 kts | 196° |
| 2026-04-20 12:53 | 48.47159 | 8.24741 | 35811 ft | 458 kts | 180° |
| 2026-04-20 12:54 | 48.43999 | 8.25427 | 36116 ft | 460 kts | 176° |
| 2026-04-20 12:54 | 48.40840 | 8.26246 | 36367 ft | 461 kts | 176° |
| 2026-04-20 12:54 | 48.37686 | 8.27049 | 36642 ft | 460 kts | 176° |
| 2026-04-20 12:54 | 48.34525 | 8.27831 | 36910 ft | 460 kts | 176° |
| 2026-04-20 12:55 | 48.31371 | 8.28603 | 37234 ft | 458 kts | 176° |
| 2026-04-20 12:55 | 48.24988 | 8.30136 | 37146 ft | 471 kts | 176° |
| 2026-04-20 12:56 | 48.18453 | 8.31690 | 37135 ft | 480 kts | 176° |
| 2026-04-20 12:56 | 48.11850 | 8.33288 | 37078 ft | 480 kts | 176° |
| 2026-04-20 12:57 | 48.05259 | 8.34908 | 37083 ft | 480 kts | 176° |
| 2026-04-20 12:57 | 47.98668 | 8.36515 | 37074 ft | 479 kts | 176° |
| 2026-04-20 12:58 | 47.92128 | 8.38103 | 37067 ft | 479 kts | 176° |
| 2026-04-20 12:58 | 47.85560 | 8.39694 | 37074 ft | 478 kts | 176° |
| 2026-04-20 12:59 | 47.78999 | 8.41280 | 37075 ft | 478 kts | 176° |
| 2026-04-20 12:59 | 47.72432 | 8.42864 | 37077 ft | 478 kts | 176° |
| 2026-04-20 12:59 | 47.69200 | 8.44189 | 37086 ft | 489 kts | 160° |
| 2026-04-20 13:00 | 47.66307 | 8.46908 | 37100 ft | 497 kts | 143° |
| 2026-04-20 13:00 | 47.61249 | 8.53998 | 37047 ft | 501 kts | 139° |
| 2026-04-20 13:01 | 47.56192 | 8.61054 | 37063 ft | 500 kts | 140° |
| 2026-04-20 13:01 | 47.51075 | 8.68009 | 37068 ft | 499 kts | 140° |
| 2026-04-20 13:02 | 47.45950 | 8.74933 | 37070 ft | 499 kts | 140° |
| 2026-04-20 13:02 | 47.40823 | 8.81842 | 37069 ft | 499 kts | 140° |
| 2026-04-20 13:03 | 47.35689 | 8.88739 | 37068 ft | 498 kts | 140° |
| 2026-04-20 13:03 | 47.30590 | 8.95571 | 37064 ft | 498 kts | 140° |
| 2026-04-20 13:04 | 47.25462 | 9.02425 | 37051 ft | 497 kts | 140° |
| 2026-04-20 13:04 | 47.20339 | 9.09252 | 37053 ft | 497 kts | 141° |
| 2026-04-20 13:05 | 47.15221 | 9.16057 | 37048 ft | 495 kts | 141° |
| 2026-04-20 13:05 | 47.10106 | 9.22837 | 37048 ft | 495 kts | 141° |
| 2026-04-20 13:06 | 47.05000 | 9.29589 | 37022 ft | 493 kts | 141° |
| 2026-04-20 13:06 | 46.99905 | 9.36332 | 37011 ft | 493 kts | 141° |
| 2026-04-20 13:07 | 46.94806 | 9.43076 | 37008 ft | 493 kts | 141° |
| 2026-04-20 13:07 | 46.89705 | 9.49804 | 37007 ft | 494 kts | 141° |
| 2026-04-20 13:08 | 46.84605 | 9.56513 | 37019 ft | 494 kts | 141° |
| 2026-04-20 13:08 | 46.79497 | 9.63205 | 37023 ft | 494 kts | 141° |
| 2026-04-20 13:09 | 46.74380 | 9.69899 | 37012 ft | 494 kts | 141° |
| 2026-04-20 13:09 | 46.69263 | 9.76574 | 37002 ft | 494 kts | 141° |
| 2026-04-20 13:10 | 46.65006 | 9.82116 | 36997 ft | 494 kts | 141° |
| 2026-04-20 13:10 | 46.59880 | 9.88773 | 36715 ft | 492 kts | 141° |
| 2026-04-20 13:10 | 46.57355 | 9.92047 | 36438 ft | 478 kts | 142° |
| 2026-04-20 13:11 | 46.54886 | 9.95244 | 35741 ft | 475 kts | 142° |
| 2026-04-20 13:11 | 46.52432 | 9.98415 | 35125 ft | 470 kts | 142° |
| 2026-04-20 13:11 | 46.49997 | 10.01556 | 34477 ft | 467 kts | 142° |
| 2026-04-20 13:11 | 46.47579 | 10.04671 | 33857 ft | 463 kts | 142° |
| 2026-04-20 13:12 | 46.45147 | 10.07678 | 33258 ft | 456 kts | 145° |
| 2026-04-20 13:12 | 46.42704 | 10.10579 | 32629 ft | 452 kts | 145° |
| 2026-04-20 13:12 | 46.40285 | 10.13460 | 32040 ft | 448 kts | 145° |
| 2026-04-20 13:12 | 46.37895 | 10.16317 | 31449 ft | 444 kts | 145° |
| 2026-04-20 13:13 | 46.35513 | 10.19171 | 30861 ft | 444 kts | 145° |
| 2026-04-20 13:13 | 46.33116 | 10.22035 | 30269 ft | 451 kts | 145° |
| 2026-04-20 13:13 | 46.30668 | 10.24953 | 29630 ft | 458 kts | 144° |
| 2026-04-20 13:13 | 46.28213 | 10.27889 | 29056 ft | 460 kts | 145° |
| 2026-04-20 13:14 | 46.25737 | 10.30843 | 28421 ft | 462 kts | 144° |
| 2026-04-20 13:14 | 46.23257 | 10.33800 | 27809 ft | 462 kts | 144° |
| 2026-04-20 13:14 | 46.20778 | 10.36753 | 27193 ft | 460 kts | 144° |
| 2026-04-20 13:14 | 46.18316 | 10.39683 | 26598 ft | 457 kts | 144° |
| 2026-04-20 13:15 | 46.15876 | 10.42586 | 25985 ft | 452 kts | 144° |
| 2026-04-20 13:15 | 46.13460 | 10.45446 | 25395 ft | 446 kts | 144° |
| 2026-04-20 13:15 | 46.11068 | 10.48262 | 24799 ft | 442 kts | 144° |
| 2026-04-20 13:15 | 46.08692 | 10.51054 | 24223 ft | 439 kts | 144° |
| 2026-04-20 13:16 | 46.06340 | 10.53814 | 23601 ft | 435 kts | 144° |
| 2026-04-20 13:16 | 46.04014 | 10.56542 | 23054 ft | 427 kts | 144° |
| 2026-04-20 13:16 | 46.01729 | 10.59222 | 22467 ft | 421 kts | 144° |
| 2026-04-20 13:16 | 45.99469 | 10.61866 | 21960 ft | 416 kts | 144° |
| 2026-04-20 13:17 | 45.97256 | 10.64456 | 21429 ft | 414 kts | 144° |
| 2026-04-20 13:17 | 45.95022 | 10.67071 | 20874 ft | 412 kts | 144° |
| 2026-04-20 13:17 | 45.92804 | 10.69661 | 20306 ft | 410 kts | 144° |
| 2026-04-20 13:17 | 45.90602 | 10.72234 | 19763 ft | 405 kts | 144° |
| 2026-04-20 13:18 | 45.88424 | 10.74781 | 19246 ft | 401 kts | 144° |
| 2026-04-20 13:18 | 45.86266 | 10.77295 | 18700 ft | 398 kts | 145° |
| 2026-04-20 13:18 | 45.84129 | 10.79783 | 18157 ft | 393 kts | 145° |
| 2026-04-20 13:18 | 45.81862 | 10.81804 | 17658 ft | 376 kts | 163° |
| 2026-04-20 13:19 | 45.79377 | 10.82490 | 17197 ft | 357 kts | 185° |
| 2026-04-20 13:19 | 45.76910 | 10.82361 | 16751 ft | 355 kts | 189° |
| 2026-04-20 13:19 | 45.74441 | 10.82202 | 16252 ft | 355 kts | 187° |
| 2026-04-20 13:19 | 45.71977 | 10.82114 | 15778 ft | 354 kts | 187° |
| 2026-04-20 13:20 | 45.69522 | 10.82050 | 15284 ft | 352 kts | 186° |
| 2026-04-20 13:20 | 45.67083 | 10.81995 | 14784 ft | 348 kts | 186° |
| 2026-04-20 13:20 | 45.64690 | 10.81881 | 14341 ft | 340 kts | 193° |
| 2026-04-20 13:20 | 45.62430 | 10.81182 | 13996 ft | 327 kts | 200° |
| 2026-04-20 13:21 | 45.60240 | 10.80326 | 13457 ft | 324 kts | 200° |
| 2026-04-20 13:21 | 45.58084 | 10.79512 | 13060 ft | 317 kts | 199° |
| 2026-04-20 13:21 | 45.55969 | 10.78718 | 12634 ft | 312 kts | 199° |
| 2026-04-20 13:21 | 45.53886 | 10.77938 | 12216 ft | 307 kts | 199° |
| 2026-04-20 13:22 | 45.51835 | 10.77171 | 11808 ft | 302 kts | 199° |
| 2026-04-20 13:22 | 45.49812 | 10.76415 | 11406 ft | 299 kts | 199° |
| 2026-04-20 13:22 | 45.47817 | 10.75657 | 11013 ft | 295 kts | 199° |
| 2026-04-20 13:22 | 45.45838 | 10.74908 | 10624 ft | 292 kts | 199° |
| 2026-04-20 13:23 | 45.43884 | 10.74173 | 10247 ft | 289 kts | 198° |
| 2026-04-20 13:23 | 45.41943 | 10.73446 | 9857 ft | 287 kts | 198° |
| 2026-04-20 13:23 | 45.40091 | 10.72510 | 9465 ft | 279 kts | 214° |
| 2026-04-20 13:23 | 45.38648 | 10.70743 | 9141 ft | 272 kts | 228° |
| 2026-04-20 13:24 | 45.37327 | 10.68808 | 8751 ft | 272 kts | 228° |
| 2026-04-20 13:24 | 45.35982 | 10.66919 | 8385 ft | 271 kts | 226° |
| 2026-04-20 13:24 | 45.34639 | 10.65040 | 8043 ft | 271 kts | 228° |
| 2026-04-20 13:24 | 45.33355 | 10.63104 | 7748 ft | 269 kts | 229° |
| 2026-04-20 13:25 | 45.32066 | 10.61166 | 7362 ft | 270 kts | 228° |
| 2026-04-20 13:25 | 45.30781 | 10.59262 | 7054 ft | 269 kts | 227° |
| 2026-04-20 13:25 | 45.29486 | 10.57350 | 6650 ft | 269 kts | 227° |
| 2026-04-20 13:25 | 45.28180 | 10.55456 | 6281 ft | 265 kts | 227° |
| 2026-04-20 13:26 | 45.26907 | 10.53678 | 5893 ft | 249 kts | 220° |
| 2026-04-20 13:26 | 45.25347 | 10.52693 | 5586 ft | 248 kts | 188° |
| 2026-04-20 13:26 | 45.23736 | 10.53175 | 5376 ft | 233 kts | 150° |
| 2026-04-20 13:26 | 45.22676 | 10.54778 | 5160 ft | 218 kts | 124° |
| 2026-04-20 13:27 | 45.21878 | 10.56455 | 4979 ft | 191 kts | 127° |
| 2026-04-20 13:27 | 45.21101 | 10.57875 | 4727 ft | 175 kts | 130° |
| 2026-04-20 13:27 | 45.20472 | 10.59288 | 4440 ft | 164 kts | 115° |
| 2026-04-20 13:27 | 45.20318 | 10.60811 | 4176 ft | 156 kts | 73° |
| 2026-04-20 13:28 | 45.20948 | 10.61977 | 3944 ft | 147 kts | 38° |
| 2026-04-20 13:28 | 45.21721 | 10.62878 | 3746 ft | 140 kts | 44° |
| 2026-04-20 13:28 | 45.22367 | 10.63872 | 3548 ft | 134 kts | 48° |
| 2026-04-20 13:28 | 45.23009 | 10.64805 | 3370 ft | 131 kts | 44° |
| 2026-04-20 13:29 | 45.23647 | 10.65724 | 3204 ft | 130 kts | 47° |
| 2026-04-20 13:29 | 45.24283 | 10.66649 | 3061 ft | 132 kts | 45° |
| 2026-04-20 13:29 | 45.24928 | 10.67578 | 2913 ft | 132 kts | 45° |
| 2026-04-20 13:29 | 45.25578 | 10.68508 | 2764 ft | 132 kts | 45° |
| 2026-04-20 13:30 | 45.26218 | 10.69440 | 2618 ft | 132 kts | 46° |
| 2026-04-20 13:30 | 45.26860 | 10.70373 | 2467 ft | 132 kts | 46° |
| 2026-04-20 13:30 | 45.27499 | 10.71300 | 2305 ft | 131 kts | 46° |
| 2026-04-20 13:30 | 45.28137 | 10.72224 | 2149 ft | 131 kts | 45° |
| 2026-04-20 13:31 | 45.28778 | 10.73153 | 1990 ft | 131 kts | 46° |
| 2026-04-20 13:31 | 45.29394 | 10.74045 | 2011 ft | 127 kts | 45° |
| 2026-04-20 13:31 | 45.30018 | 10.74945 | 2066 ft | 129 kts | 45° |
| 2026-04-20 13:31 | 45.30645 | 10.75866 | 2113 ft | 131 kts | 45° |
| 2026-04-20 13:32 | 45.31294 | 10.76793 | 2091 ft | 134 kts | 46° |
| 2026-04-20 13:32 | 45.31944 | 10.77753 | 1955 ft | 134 kts | 46° |
| 2026-04-20 13:32 | 45.32573 | 10.78667 | 1987 ft | 129 kts | 45° |
| 2026-04-20 13:32 | 45.33231 | 10.79610 | 1806 ft | 139 kts | 45° |
| 2026-04-20 13:33 | 45.33892 | 10.80575 | 1617 ft | 134 kts | 46° |
| 2026-04-20 13:33 | 45.34531 | 10.81513 | 1443 ft | 131 kts | 46° |
| 2026-04-20 13:33 | 45.35164 | 10.82425 | 1262 ft | 129 kts | 46° |
| 2026-04-20 13:33 | 45.35788 | 10.83334 | 1101 ft | 129 kts | 47° |
| 2026-04-20 13:34 | 45.36420 | 10.84251 | 920 ft | 130 kts | 47° |
| 2026-04-20 13:34 | 45.37047 | 10.85172 | 734 ft | 129 kts | 48° |
| 2026-04-20 13:34 | 45.37661 | 10.86061 | 571 ft | 126 kts | 48° |
| 2026-04-20 13:34 | 45.38273 | 10.86954 | 398 ft | 126 kts | 48° |
| 2026-04-20 13:35 | 45.38874 | 10.87835 | 257 ft | 124 kts | 48° |
| 2026-04-20 13:35 | 45.39409 | 10.88621 | 238 ft | 90 kts | 46° |
| 2026-04-20 13:35 | 45.39741 | 10.89109 | 236 ft | 52 kts | 45° |
| 2026-04-20 13:35 | 45.39894 | 10.89330 | 235 ft | 16 kts | 46° |
| 2026-04-20 13:36 | 45.39971 | 10.89446 | 237 ft | 17 kts | 46° |
| 2026-04-20 13:36 | 45.40057 | 10.89566 | 237 ft | 18 kts | 44° |
| 2026-04-20 13:36 | 45.40149 | 10.89697 | 238 ft | 19 kts | 45° |
| 2026-04-20 13:36 | 45.40247 | 10.89842 | 237 ft | 21 kts | 48° |
| 2026-04-20 13:37 | 45.40298 | 10.90040 | 240 ft | 19 kts | 76° |
| 2026-04-20 13:37 | 45.40325 | 10.90191 | 237 ft | 15 kts | 75° |
| 2026-04-20 13:37 | 45.40309 | 10.90309 | 237 ft | 12 kts | 136° |
| 2026-04-20 13:37 | 45.40254 | 10.90403 | 238 ft | 11 kts | 131° |
| 2026-04-20 13:38 | 45.40232 | 10.90436 | 235 ft | 1 kts | 136° |
| 2026-04-20 13:38 | 45.40218 | 10.90454 | 237 ft | 4 kts | 136° |
| 2026-04-20 13:38 | 45.40206 | 10.90471 | 235 ft | 0 kts | 135° |